Time;durP1;ratioP1;P1;durP2;ratioP2;P2;SDS_P1;SDS_P2;PMS_P1;PMS_P2;Temp;Humidity;BMP_temperature;BMP_pressure;BME280_temperature;BME280_humidity;BME280_pressure;Samples;Min_cycle;Max_cycle;Signal;HPM_P1;HPM_P2
2023/05/25 00:01:03;;;;;;;10.70;6.13;;;11.80;99.90;;;;;;5132260;27;20517;-78
2023/05/25 00:03:30;;;;;;;16.63;6.90;;;11.80;99.90;;;;;;5115566;27;20199;-79
2023/05/25 00:06:00;;;;;;;11.83;6.40;;;11.70;99.90;;;;;;5112100;28;20203;-79
2023/05/25 00:08:26;;;;;;;12.10;6.33;;;11.70;99.90;;;;;;5111526;28;20499;-78
2023/05/25 00:10:53;;;;;;;9.50;5.47;;;11.60;99.90;;;;;;5111912;28;20488;-78
2023/05/25 00:13:22;;;;;;;8.33;4.93;;;11.60;99.90;;;;;;5112642;28;20195;-78
2023/05/25 00:15:48;;;;;;;10.27;5.43;;;11.70;99.90;;;;;;5132342;27;20234;-79
2023/05/25 00:18:15;;;;;;;7.53;5.07;;;11.60;99.90;;;;;;5133047;27;20361;-78
2023/05/25 00:20:43;;;;;;;9.43;5.77;;;11.60;99.90;;;;;;5131797;27;20261;-79
2023/05/25 00:23:10;;;;;;;8.03;4.57;;;11.60;99.90;;;;;;5117047;27;20603;-79
2023/05/25 00:25:37;;;;;;;8.53;4.43;;;11.60;99.90;;;;;;5112156;28;20196;-79
2023/05/25 00:28:05;;;;;;;6.87;4.77;;;11.60;99.90;;;;;;5111698;28;20294;-79
2023/05/25 00:30:33;;;;;;;10.87;5.13;;;11.60;99.90;;;;;;5112327;28;20192;-79
2023/05/25 00:33:00;;;;;;;9.27;4.80;;;11.60;99.90;;;;;;5111838;28;20521;-79
2023/05/25 00:35:27;;;;;;;6.17;4.47;;;11.60;99.90;;;;;;5111128;28;20228;-79
2023/05/25 00:37:54;;;;;;;8.27;4.07;;;11.50;99.90;;;;;;5111843;28;20202;-79
2023/05/25 00:40:21;;;;;;;6.83;4.63;;;11.50;99.90;;;;;;5111747;28;20310;-79
2023/05/25 00:42:48;;;;;;;7.27;4.50;;;11.50;99.90;;;;;;5111392;28;20708;-79
2023/05/25 00:45:15;;;;;;;7.27;4.27;;;11.50;99.90;;;;;;5111891;28;20283;-79
2023/05/25 00:47:45;;;;;;;6.73;4.10;;;11.40;99.90;;;;;;5112007;28;20610;-79
2023/05/25 00:50:16;;;;;;;11.30;5.60;;;11.40;99.90;;;;;;5111101;28;20204;-79
2023/05/25 00:52:43;;;;;;;9.33;4.77;;;11.40;99.90;;;;;;5111767;28;20203;-79
2023/05/25 00:55:12;;;;;;;6.47;4.00;;;11.40;99.90;;;;;;5111881;28;20274;-79
2023/05/25 00:57:44;;;;;;;9.10;4.07;;;11.30;99.90;;;;;;5111257;28;20239;-78
2023/05/25 01:00:13;;;;;;;9.50;4.70;;;11.30;99.90;;;;;;5111953;28;20268;-79
2023/05/25 01:02:43;;;;;;;8.63;4.67;;;11.30;99.90;;;;;;5111355;28;20524;-78
2023/05/25 01:05:11;;;;;;;7.90;4.60;;;11.30;99.90;;;;;;5112092;28;20726;-78
2023/05/25 01:07:41;;;;;;;8.10;4.50;;;11.20;99.90;;;;;;5111977;28;20277;-79
2023/05/25 01:10:11;;;;;;;8.53;4.30;;;11.20;99.90;;;;;;5111183;28;20212;-78
2023/05/25 01:12:40;;;;;;;8.07;4.43;;;11.10;99.90;;;;;;5111887;28;20210;-79
2023/05/25 01:15:09;;;;;;;9.80;4.30;;;11.10;99.90;;;;;;5111649;28;20506;-78
2023/05/25 01:17:37;;;;;;;8.23;5.03;;;11.00;99.90;;;;;;5113905;27;20594;-78
2023/05/25 01:20:08;;;;;;;7.93;4.50;;;11.00;99.90;;;;;;5136366;27;20215;-78
2023/05/25 01:22:43;;;;;;;10.13;4.80;;;11.00;99.90;;;;;;5120780;27;20218;-79
2023/05/25 01:25:15;;;;;;;5.70;3.83;;;11.00;99.90;;;;;;5115017;27;20215;-79
2023/05/25 01:27:46;;;;;;;9.63;5.13;;;11.00;99.90;;;;;;5115465;28;20196;-78
2023/05/25 01:30:16;;;;;;;9.67;5.53;;;10.90;99.90;;;;;;5115182;28;20598;-78
2023/05/25 01:32:43;;;;;;;10.40;4.50;;;10.90;99.90;;;;;;5114841;27;20287;-79
2023/05/25 01:35:11;;;;;;;9.97;4.73;;;10.90;99.90;;;;;;5115093;28;20234;-78
2023/05/25 01:37:45;;;;;;;8.00;4.60;;;10.80;99.90;;;;;;5115267;28;20584;-78
2023/05/25 01:40:13;;;;;;;8.53;5.17;;;10.80;99.90;;;;;;5115450;28;20212;-78
2023/05/25 01:42:41;;;;;;;8.23;4.67;;;10.80;99.90;;;;;;5115524;28;20558;-78
2023/05/25 01:45:10;;;;;;;9.77;5.03;;;10.70;99.90;;;;;;5114515;28;20362;-78
2023/05/25 01:47:45;;;;;;;9.50;4.40;;;10.70;99.90;;;;;;5124594;27;20210;-79
2023/05/25 01:50:19;;;;;;;7.43;4.70;;;10.70;99.90;;;;;;5135699;27;20281;-78
2023/05/25 01:52:55;;;;;;;6.67;4.57;;;10.70;99.90;;;;;;5114952;27;20204;-78
2023/05/25 01:55:25;;;;;;;8.80;4.90;;;10.70;99.90;;;;;;5115061;28;20228;-79
2023/05/25 01:57:56;;;;;;;9.57;5.27;;;10.70;99.90;;;;;;5115292;28;20253;-79
2023/05/25 02:00:25;;;;;;;10.00;5.30;;;10.70;99.90;;;;;;5114138;28;20585;-78
2023/05/25 02:02:53;;;;;;;10.63;4.97;;;10.80;99.90;;;;;;5114444;28;20219;-79
2023/05/25 02:05:20;;;;;;;7.93;5.33;;;10.80;99.90;;;;;;5114772;28;20200;-78
2023/05/25 02:07:49;;;;;;;7.97;5.10;;;10.80;99.90;;;;;;5114399;27;20196;-79
2023/05/25 02:10:16;;;;;;;7.73;5.03;;;10.80;99.90;;;;;;5114762;28;20231;-79
2023/05/25 02:12:42;;;;;;;9.07;5.70;;;10.80;99.90;;;;;;5115206;28;20206;-78
2023/05/25 02:15:10;;;;;;;7.80;5.00;;;10.80;99.90;;;;;;5126680;27;20209;-78
2023/05/25 02:17:37;;;;;;;10.77;5.10;;;10.80;99.90;;;;;;5125473;27;20196;-79
2023/05/25 02:20:07;;;;;;;8.83;5.67;;;10.90;99.90;;;;;;5113726;28;20314;-78
2023/05/25 02:22:34;;;;;;;7.83;5.90;;;10.90;99.90;;;;;;5114694;28;20204;-79
2023/05/25 02:25:02;;;;;;;11.90;5.83;;;10.90;99.90;;;;;;5114878;28;20206;-78
2023/05/25 02:27:29;;;;;;;8.23;5.17;;;10.90;99.90;;;;;;5113320;28;20618;-79
2023/05/25 02:29:56;;;;;;;10.07;6.10;;;10.90;99.90;;;;;;5114209;28;20203;-79
2023/05/25 02:32:23;;;;;;;10.23;5.80;;;11.00;99.90;;;;;;5114451;28;20709;-79
2023/05/25 02:34:50;;;;;;;9.23;6.10;;;11.00;99.90;;;;;;5113636;28;20296;-78
2023/05/25 02:37:17;;;;;;;11.80;7.03;;;11.00;99.90;;;;;;5114429;27;20479;-78
2023/05/25 02:39:44;;;;;;;12.03;6.50;;;11.00;99.90;;;;;;5114409;28;20224;-79
2023/05/25 02:42:12;;;;;;;10.07;5.83;;;11.00;99.90;;;;;;5113492;27;20232;-79
2023/05/25 02:44:39;;;;;;;8.17;5.17;;;11.00;99.90;;;;;;5114126;28;20279;-79
2023/05/25 02:47:06;;;;;;;9.77;6.43;;;11.00;99.90;;;;;;5114263;27;20570;-79
2023/05/25 02:49:33;;;;;;;10.67;6.60;;;11.10;99.90;;;;;;5113212;28;20611;-78
2023/05/25 02:52:00;;;;;;;7.37;4.60;;;11.10;99.90;;;;;;5113801;27;20264;-79
2023/05/25 02:54:27;;;;;;;6.53;4.87;;;11.10;99.90;;;;;;5113810;28;20194;-78
2023/05/25 02:56:54;;;;;;;8.73;4.90;;;11.00;99.90;;;;;;5113083;28;20187;-78
2023/05/25 02:59:23;;;;;;;8.53;5.17;;;11.00;99.90;;;;;;5114326;28;20202;-78
2023/05/25 03:01:50;;;;;;;8.00;6.10;;;11.00;99.90;;;;;;5113629;28;20527;-79
2023/05/25 03:04:17;;;;;;;9.23;5.30;;;11.00;99.90;;;;;;5113278;28;20192;-78
2023/05/25 03:06:45;;;;;;;8.37;5.53;;;11.00;99.90;;;;;;5113610;27;20566;-79
2023/05/25 03:09:12;;;;;;;10.00;6.70;;;11.00;99.90;;;;;;5113318;28;20195;-78
2023/05/25 03:11:39;;;;;;;10.50;6.17;;;11.00;99.90;;;;;;5113754;28;20192;-79
2023/05/25 03:14:06;;;;;;;8.63;5.90;;;10.90;99.90;;;;;;5114099;28;20210;-78
2023/05/25 03:16:35;;;;;;;10.13;5.77;;;10.90;99.90;;;;;;5112818;28;20552;-79
2023/05/25 03:19:02;;;;;;;14.20;7.30;;;10.90;99.90;;;;;;5113488;28;20210;-79
2023/05/25 03:21:29;;;;;;;12.87;6.77;;;10.90;99.90;;;;;;5131183;27;20238;-79
2023/05/25 03:23:56;;;;;;;11.60;7.03;;;10.90;99.90;;;;;;5133235;27;20610;-78
2023/05/25 03:26:24;;;;;;;11.53;7.13;;;10.90;99.90;;;;;;5133905;27;20203;-79
2023/05/25 03:28:51;;;;;;;12.47;6.50;;;10.90;99.90;;;;;;5127516;27;20849;-78
2023/05/25 03:31:18;;;;;;;10.77;6.43;;;10.90;99.90;;;;;;5112375;28;20764;-79
2023/05/25 03:33:46;;;;;;;10.67;7.00;;;10.90;99.90;;;;;;5113103;28;20215;-79
2023/05/25 03:36:16;;;;;;;11.27;7.20;;;11.00;99.90;;;;;;5113447;28;20189;-78
2023/05/25 03:38:43;;;;;;;10.93;7.07;;;11.00;99.90;;;;;;5112599;28;20208;-79
2023/05/25 03:41:10;;;;;;;9.50;6.53;;;11.00;99.90;;;;;;5112355;28;20658;-79
2023/05/25 03:43:37;;;;;;;10.03;6.77;;;11.00;99.90;;;;;;5112942;28;20557;-79
2023/05/25 03:46:03;;;;;;;11.17;7.10;;;11.00;99.90;;;;;;5112239;28;20207;-79
2023/05/25 03:48:30;;;;;;;11.63;6.73;;;11.00;99.90;;;;;;5113058;27;20766;-79
2023/05/25 03:50:59;;;;;;;11.73;7.07;;;11.00;99.90;;;;;;5113038;28;20585;-78
2023/05/25 03:53:25;;;;;;;12.10;7.40;;;11.00;99.90;;;;;;5111971;28;20712;-79
2023/05/25 03:55:52;;;;;;;9.47;6.33;;;11.00;99.90;;;;;;5113899;27;20291;-78
2023/05/25 03:58:19;;;;;;;13.87;7.33;;;11.10;99.90;;;;;;5112791;28;20210;-79
2023/05/25 04:00:47;;;;;;;11.23;5.97;;;11.10;99.90;;;;;;5111741;28;20308;-79
2023/05/25 04:03:14;;;;;;;10.27;6.30;;;11.10;99.90;;;;;;5112477;28;20192;-78
2023/05/25 04:05:41;;;;;;;14.10;7.13;;;11.10;99.90;;;;;;5112079;28;20275;-79
2023/05/25 04:08:10;;;;;;;11.67;6.97;;;11.10;99.90;;;;;;5128250;27;20209;-79
2023/05/25 04:10:37;;;;;;;15.87;7.07;;;11.20;99.90;;;;;;5133314;27;20203;-79
2023/05/25 04:13:03;;;;;;;15.93;8.07;;;11.20;99.90;;;;;;5133058;27;20227;-80
2023/05/25 04:15:33;;;;;;;12.03;6.80;;;11.20;99.90;;;;;;5131377;27;20587;-79
2023/05/25 04:18:01;;;;;;;9.13;6.20;;;11.20;99.90;;;;;;5133170;27;20267;-79
2023/05/25 04:20:28;;;;;;;12.73;7.33;;;11.30;99.90;;;;;;5132350;27;20641;-79
2023/05/25 04:22:55;;;;;;;12.07;7.27;;;11.30;99.90;;;;;;5133253;27;20552;-79
2023/05/25 04:25:24;;;;;;;20.20;9.20;;;11.30;99.90;;;;;;5115464;27;20672;-80
2023/05/25 04:27:52;;;;;;;13.50;7.03;;;11.30;99.90;;;;;;5111974;28;20208;-79
2023/05/25 04:30:19;;;;;;;16.33;8.13;;;11.30;99.90;;;;;;5112732;28;20528;-79
2023/05/25 04:32:46;;;;;;;9.47;6.07;;;11.40;99.90;;;;;;5112287;28;20187;-79
2023/05/25 04:35:14;;;;;;;13.70;8.43;;;11.30;99.90;;;;;;5111328;28;20634;-79
2023/05/25 04:37:41;;;;;;;9.93;6.63;;;11.40;99.90;;;;;;5111987;28;20261;-79
2023/05/25 04:40:10;;;;;;;11.80;7.03;;;11.40;99.90;;;;;;5112238;28;20276;-79
2023/05/25 04:42:39;;;;;;;12.20;6.40;;;11.40;99.90;;;;;;5111518;28;20627;-79
2023/05/25 04:45:09;;;;;;;10.73;6.43;;;11.40;99.90;;;;;;5127276;28;20507;-79
2023/05/25 04:47:36;;;;;;;8.77;5.50;;;11.50;99.90;;;;;;5132583;28;20202;-79
2023/05/25 04:50:03;;;;;;;8.77;5.73;;;11.50;99.90;;;;;;5132039;28;20195;-80
2023/05/25 04:52:31;;;;;;;11.17;6.07;;;11.60;99.90;;;;;;5134437;27;20201;-79
2023/05/25 04:54:58;;;;;;;10.50;6.63;;;11.60;99.90;;;;;;5115858;28;20196;-79
2023/05/25 04:57:26;;;;;;;9.73;6.77;;;11.70;99.90;;;;;;5116295;28;20184;-80
2023/05/25 04:59:55;;;;;;;13.07;6.77;;;11.70;99.90;;;;;;5115795;28;20560;-80
2023/05/25 05:02:21;;;;;;;10.17;6.60;;;11.80;99.90;;;;;;5115487;28;20334;-78
2023/05/25 05:04:51;;;;;;;10.17;6.17;;;11.80;99.90;;;;;;5116436;28;20203;-80
2023/05/25 05:07:18;;;;;;;13.00;8.33;;;11.90;99.90;;;;;;5116350;27;20199;-80
2023/05/25 05:09:45;;;;;;;10.37;7.33;;;12.10;99.90;;;;;;5115464;28;20286;-79
2023/05/25 05:12:12;;;;;;;13.53;7.43;;;12.30;99.90;;;;;;5116452;28;20196;-80
2023/05/25 05:14:39;;;;;;;13.60;7.80;;;12.40;99.90;;;;;;5115822;28;20202;-79
2023/05/25 05:17:07;;;;;;;14.97;8.30;;;12.60;99.90;;;;;;5115838;28;20278;-80
2023/05/25 05:19:34;;;;;;;15.20;8.27;;;12.90;99.90;;;;;;5115833;28;20202;-80
2023/05/25 05:22:01;;;;;;;17.33;8.17;;;13.30;99.90;;;;;;5121527;27;20222;-80
2023/05/25 05:24:27;;;;;;;10.37;6.87;;;13.60;99.90;;;;;;5135724;27;20282;-79
2023/05/25 05:26:54;;;;;;;10.50;6.87;;;13.90;99.90;;;;;;5118156;27;20654;-80
2023/05/25 05:29:21;;;;;;;10.57;6.27;;;14.30;99.90;;;;;;5116070;28;20306;-79
2023/05/25 05:31:48;;;;;;;9.57;6.07;;;14.70;99.90;;;;;;5114820;28;20491;-80
2023/05/25 05:34:16;;;;;;;10.13;6.13;;;15.10;99.90;;;;;;5116322;27;20238;-82
2023/05/25 05:36:44;;;;;;;10.23;5.67;;;15.30;99.90;;;;;;5136382;27;20617;-80
2023/05/25 05:39:10;;;;;;;9.37;6.30;;;15.50;99.90;;;;;;5135818;27;20320;-82
2023/05/25 05:41:37;;;;;;;10.70;5.95;;;15.70;99.90;;;;;;5116874;27;20266;-80
2023/05/25 05:44:04;;;;;;;12.98;5.55;;;16.00;99.90;;;;;;5114894;28;20192;-80
2023/05/25 05:46:31;;;;;;;7.55;4.65;;;16.30;99.90;;;;;;5115327;28;20283;-81
2023/05/25 05:48:58;;;;;;;13.77;5.68;;;16.50;99.90;;;;;;5115137;27;20208;-80
2023/05/25 05:51:26;;;;;;;14.57;5.38;;;16.70;99.90;;;;;;5115310;28;20192;-80
2023/05/25 05:53:53;;;;;;;8.60;5.22;;;16.80;99.90;;;;;;5123625;27;20633;-81
2023/05/25 05:56:20;;;;;;;9.05;4.65;;;16.80;99.90;;;;;;5122096;27;20497;-80
2023/05/25 05:58:48;;;;;;;9.77;4.47;;;16.80;99.90;;;;;;5128042;27;20587;-81
2023/05/25 06:01:15;;;;;;;8.25;4.00;;;16.90;99.90;;;;;;5135616;27;20223;-80
2023/05/25 06:03:42;;;;;;;8.90;5.00;;;17.00;99.90;;;;;;5135212;27;20595;-79
2023/05/25 06:06:09;;;;;;;10.00;4.03;;;17.20;99.90;;;;;;5135359;27;20208;-81
2023/05/25 06:08:39;;;;;;;7.80;4.47;;;17.50;99.90;;;;;;5116818;27;20212;-80
2023/05/25 06:11:06;;;;;;;9.02;4.55;;;17.60;99.90;;;;;;5115198;28;20500;-80
2023/05/25 06:13:33;;;;;;;11.68;4.95;;;17.70;99.90;;;;;;5114061;28;20196;-80
2023/05/25 06:16:00;;;;;;;12.07;3.95;;;17.90;99.90;;;;;;5115266;27;20200;-80
2023/05/25 06:18:27;;;;;;;13.57;4.85;;;17.80;99.90;;;;;;5114919;28;20580;-81
2023/05/25 06:20:54;;;;;;;8.07;4.57;;;17.50;99.90;;;;;;5113398;28;20635;-81
2023/05/25 06:23:20;;;;;;;9.65;4.53;;;17.30;99.90;;;;;;5115000;27;20824;-82
2023/05/25 06:25:51;;;;;;;7.47;4.10;;;17.00;99.90;;;;;;5115167;28;20200;-82
2023/05/25 06:28:18;;;;;;;10.07;4.75;;;16.90;99.90;;;;;;5115095;28;20265;-80
2023/05/25 06:30:45;;;;;;;12.73;5.20;;;17.00;99.90;;;;;;5114661;28;20206;-80
2023/05/25 06:33:12;;;;;;;9.40;4.72;;;17.30;99.90;;;;;;5113948;28;20204;-80
2023/05/25 06:35:39;;;;;;;8.82;4.30;;;17.80;99.90;;;;;;5114856;28;20683;-81
2023/05/25 06:38:06;;;;;;;7.25;3.80;;;18.00;99.90;;;;;;5115597;28;20215;-80
2023/05/25 06:40:33;;;;;;;6.97;4.15;;;18.10;99.90;;;;;;5115874;28;20206;-81
2023/05/25 06:43:01;;;;;;;11.20;4.68;;;18.00;84.20;;;;;;5116350;28;20243;-81
2023/05/25 06:45:28;;;;;;;8.15;4.15;;;17.40;99.90;;;;;;5116871;28;20231;-81
2023/05/25 06:47:55;;;;;;;9.93;4.35;;;17.20;99.90;;;;;;5113424;28;20198;-81
2023/05/25 06:50:22;;;;;;;8.95;4.28;;;16.80;99.90;;;;;;5113332;28;20290;-80
2023/05/25 06:52:49;;;;;;;11.20;4.60;;;16.70;99.90;;;;;;5133847;27;20226;-80
2023/05/25 06:55:17;;;;;;;8.55;4.53;;;16.60;99.90;;;;;;5134039;27;20201;-81
2023/05/25 06:57:44;;;;;;;10.65;4.47;;;16.40;99.90;;;;;;5122633;27;20196;-80
2023/05/25 07:00:15;;;;;;;7.90;4.53;;;16.30;99.90;;;;;;5126620;27;20211;-80
2023/05/25 07:02:47;;;;;;;8.50;5.00;;;16.60;99.90;;;;;;5124731;27;20624;-81
2023/05/25 07:05:18;;;;;;;12.73;4.70;;;17.10;99.90;;;;;;5128507;27;20206;-84
2023/05/25 07:07:49;;;;;;;7.03;4.88;;;17.50;99.90;;;;;;5125228;27;20596;-82
2023/05/25 07:10:25;;;;;;;7.35;4.45;;;17.40;99.90;;;;;;5126756;27;20199;-81
2023/05/25 07:12:52;;;;;;;8.20;4.55;;;17.30;99.90;;;;;;5129403;27;20217;-80
2023/05/25 07:15:21;;;;;;;8.27;4.22;;;17.30;99.90;;;;;;5115998;27;20230;-81
2023/05/25 07:17:48;;;;;;;8.25;4.90;;;17.60;99.90;;;;;;5121293;27;20195;-80
2023/05/25 07:20:15;;;;;;;9.55;4.63;;;18.10;99.90;;;;;;5123980;27;20204;-79
2023/05/25 07:22:43;;;;;;;6.63;4.13;;;18.40;99.90;;;;;;5117344;27;20220;-82
2023/05/25 07:25:10;;;;;;;10.30;4.20;;;18.60;1.00;;;;;;5121330;27;20195;-81
2023/05/25 07:27:38;;;;;;;8.60;3.42;;;18.30;1.00;;;;;;5124065;27;20286;-80
2023/05/25 07:30:06;;;;;;;6.40;3.30;;;18.00;1.00;;;;;;5129216;27;20202;-80
2023/05/25 07:32:35;;;;;;;6.63;2.92;;;17.90;16.60;;;;;;5126334;27;20199;-80
2023/05/25 07:35:01;;;;;;;5.03;3.45;;;17.60;55.80;;;;;;5130395;27;20258;-80
2023/05/25 07:37:28;;;;;;;4.97;3.40;;;17.50;96.70;;;;;;5120404;27;20203;-80
2023/05/25 07:39:55;;;;;;;6.88;3.88;;;17.30;99.90;;;;;;5117345;27;20234;-84
2023/05/25 07:42:22;;;;;;;5.68;3.70;;;17.30;99.90;;;;;;5134171;27;20223;-80
2023/05/25 07:44:49;;;;;;;9.00;3.35;;;17.20;99.90;;;;;;5121245;27;20207;-80
2023/05/25 07:47:16;;;;;;;6.47;3.97;;;17.20;99.90;;;;;;5113676;28;20227;-81
2023/05/25 07:49:44;;;;;;;4.97;3.05;;;17.20;99.90;;;;;;5113337;28;20196;-83
2023/05/25 07:52:12;;;;;;;7.60;3.80;;;17.20;99.90;;;;;;5126926;27;20200;-82
2023/05/25 07:54:39;;;;;;;6.18;3.75;;;17.10;99.90;;;;;;5124919;27;20608;-81
2023/05/25 07:57:06;;;;;;;7.03;4.00;;;17.00;99.90;;;;;;5113227;28;20208;-80
2023/05/25 07:59:34;;;;;;;6.35;3.92;;;16.90;99.90;;;;;;5113251;27;20638;-79
2023/05/25 08:02:00;;;;;;;8.50;4.20;;;16.90;99.90;;;;;;5113365;28;20723;-79
2023/05/25 08:04:27;;;;;;;8.50;4.53;;;16.70;99.90;;;;;;5113258;28;20192;-79
2023/05/25 08:06:56;;;;;;;8.38;4.40;;;16.60;99.90;;;;;;5112883;27;20290;-79
2023/05/25 08:09:22;;;;;;;8.23;3.88;;;16.60;99.90;;;;;;5112899;28;20203;-80
2023/05/25 08:11:49;;;;;;;4.90;3.80;;;16.50;99.90;;;;;;5113567;28;20199;-82
2023/05/25 08:14:16;;;;;;;7.00;4.10;;;16.60;99.90;;;;;;5113353;28;20216;-83
2023/05/25 08:16:43;;;;;;;8.23;4.38;;;16.40;99.90;;;;;;5113645;28;20282;-80
2023/05/25 08:19:10;;;;;;;9.05;3.90;;;16.40;99.90;;;;;;5112364;28;20488;-81
2023/05/25 08:21:38;;;;;;;10.45;4.68;;;16.40;99.90;;;;;;5113756;28;20266;-84
2023/05/25 08:24:07;;;;;;;4.95;3.60;;;16.30;99.90;;;;;;5112944;28;20202;-78
2023/05/25 08:26:35;;;;;;;6.90;3.75;;;16.30;99.90;;;;;;5112164;28;20211;-80
2023/05/25 08:29:03;;;;;;;9.75;4.25;;;16.10;99.90;;;;;;5112967;28;20540;-81
2023/05/25 08:31:31;;;;;;;9.95;3.90;;;16.10;99.90;;;;;;5113436;28;20223;-82
2023/05/25 08:33:58;;;;;;;9.85;3.97;;;16.20;99.90;;;;;;5112306;28;20207;-80
2023/05/25 08:36:27;;;;;;;6.55;3.65;;;16.20;99.90;;;;;;5113487;28;20260;-80
2023/05/25 08:38:54;;;;;;;9.98;4.10;;;16.40;99.90;;;;;;5112807;28;20204;-79
2023/05/25 08:41:22;;;;;;;10.00;3.53;;;16.50;99.90;;;;;;5113125;28;20282;-80
2023/05/25 08:43:49;;;;;;;11.07;3.72;;;16.60;99.90;;;;;;5123503;28;20302;-83
2023/05/25 08:46:28;;;;;;;8.43;3.28;;;16.60;99.90;;;;;;5133454;28;20226;-83
2023/05/25 08:49:00;;;;;;;9.75;3.60;;;16.70;99.90;;;;;;5131775;28;20199;-83
2023/05/25 08:51:29;;;;;;;8.38;3.80;;;16.70;99.90;;;;;;5130490;28;20203;-82
2023/05/25 08:54:02;;;;;;;7.03;3.65;;;16.60;99.90;;;;;;5131299;27;20635;-85
2023/05/25 08:56:34;;;;;;;8.52;3.72;;;16.60;99.90;;;;;;5128246;28;20187;-83
2023/05/25 08:59:05;;;;;;;8.10;3.97;;;16.60;99.90;;;;;;5132270;28;20187;-79
2023/05/25 09:01:37;;;;;;;9.73;4.22;;;16.50;99.90;;;;;;5128698;28;20226;-80
2023/05/25 09:04:04;;;;;;;8.20;4.00;;;16.40;99.90;;;;;;5134139;28;20205;-84
2023/05/25 09:06:35;;;;;;;8.25;4.25;;;16.40;99.90;;;;;;5133987;28;20544;-82
2023/05/25 09:09:04;;;;;;;8.45;4.10;;;16.40;99.90;;;;;;5132002;27;20196;-87
2023/05/25 09:11:33;;;;;;;12.75;4.22;;;16.40;99.90;;;;;;5132019;28;20200;-82
2023/05/25 09:14:00;;;;;;;10.77;4.25;;;16.30;99.90;;;;;;5128405;28;20331;-82
2023/05/25 09:16:28;;;;;;;13.55;3.95;;;16.30;99.90;;;;;;5133012;28;20226;-82
2023/05/25 09:18:55;;;;;;;8.05;3.85;;;16.30;99.90;;;;;;5133625;27;20539;-84
2023/05/25 09:21:22;;;;;;;8.70;4.00;;;16.40;99.90;;;;;;5124269;28;20204;-84
2023/05/25 09:23:49;;;;;;;11.00;4.10;;;16.50;99.90;;;;;;5128627;28;20306;-83
2023/05/25 09:26:16;;;;;;;8.00;3.70;;;16.50;99.90;;;;;;5133730;28;20192;-85
2023/05/25 09:28:47;;;;;;;9.63;4.45;;;16.60;99.90;;;;;;5123497;28;20204;-83
2023/05/25 09:31:15;;;;;;;9.93;4.35;;;16.60;99.90;;;;;;5113246;28;20659;-84
2023/05/25 09:33:42;;;;;;;11.60;4.38;;;16.60;99.90;;;;;;5113347;28;20227;-90
2023/05/25 09:36:09;;;;;;;10.90;4.50;;;16.50;99.90;;;;;;5113312;28;20207;-82
2023/05/25 09:38:36;;;;;;;10.38;3.65;;;16.40;99.90;;;;;;5133349;27;20203;-83
2023/05/25 09:41:04;;;;;;;63.22;9.75;;;16.30;99.90;;;;;;5132077;27;20200;-79
2023/05/25 09:43:32;;;;;;;10.25;4.38;;;16.40;99.90;;;;;;5116789;28;20216;-84
2023/05/25 09:46:01;;;;;;;15.52;4.03;;;16.30;99.90;;;;;;5116575;22;20536;-80
2023/05/25 09:48:29;;;;;;;10.23;3.30;;;16.40;99.90;;;;;;5096210;28;20615;-78
2023/05/25 09:50:56;;;;;;;4.72;2.80;;;16.30;99.90;;;;;;5092349;28;20243;-81
2023/05/25 09:53:23;;;;;;;10.13;3.30;;;16.30;99.90;;;;;;5077645;28;20196;-81
2023/05/25 09:55:51;;;;;;;8.75;3.45;;;16.30;99.90;;;;;;5096010;28;20519;-87
2023/05/25 09:58:18;;;;;;;10.25;4.05;;;16.30;99.90;;;;;;5096334;28;20589;-85
2023/05/25 10:00:45;;;;;;;9.63;3.30;;;16.30;99.90;;;;;;5096209;28;20596;-86
2023/05/25 10:03:15;;;;;;;9.43;3.60;;;16.20;99.90;;;;;;5096708;28;20220;-79
2023/05/25 10:05:42;;;;;;;10.40;3.50;;;16.20;99.90;;;;;;5096309;28;20499;-83
2023/05/25 10:08:11;;;;;;;7.88;3.42;;;16.20;99.90;;;;;;5096393;28;20207;-82
2023/05/25 10:10:39;;;;;;;9.50;3.28;;;16.10;99.90;;;;;;5096437;28;20215;-82
2023/05/25 10:13:08;;;;;;;7.53;3.30;;;16.00;99.90;;;;;;5096018;28;20585;-84
2023/05/25 10:15:37;;;;;;;11.85;3.47;;;15.80;99.90;;;;;;5096113;28;20208;-83
2023/05/25 10:18:06;;;;;;;9.90;3.63;;;15.70;99.90;;;;;;5078127;28;20205;-84
2023/05/25 10:20:35;;;;;;;8.50;3.40;;;15.70;99.90;;;;;;5075418;28;20197;-80
2023/05/25 10:23:08;;;;;;;9.65;3.92;;;15.70;99.90;;;;;;5075950;28;20224;-83
2023/05/25 10:25:39;;;;;;;7.82;3.97;;;15.70;99.90;;;;;;5093000;28;20692;-83
2023/05/25 10:28:10;;;;;;;9.80;3.55;;;15.90;99.90;;;;;;5094887;28;20199;-80
2023/05/25 10:30:39;;;;;;;12.93;3.95;;;15.90;99.90;;;;;;5075086;28;20724;-81
2023/05/25 10:33:07;;;;;;;9.30;3.15;;;15.90;80.70;;;;;;5083007;28;20537;-82
2023/05/25 10:35:37;;;;;;;8.98;3.15;;;16.00;9.90;;;;;;5095169;28;20203;-82
2023/05/25 10:38:05;;;;;;;9.82;3.20;;;16.10;1.00;;;;;;5095197;28;20235;-81
2023/05/25 10:40:34;;;;;;;10.32;2.97;;;16.10;1.00;;;;;;5094849;28;20203;-82
2023/05/25 10:43:02;;;;;;;11.32;3.45;;;16.20;1.00;;;;;;5095082;28;20216;-80
2023/05/25 10:45:29;;;;;;;9.15;2.83;;;16.40;1.00;;;;;;5076097;28;20248;-82
2023/05/25 10:47:56;;;;;;;9.60;3.38;;;16.50;1.00;;;;;;5074179;28;20217;-84
2023/05/25 10:50:25;;;;;;;13.43;3.63;;;16.70;1.00;;;;;;5074238;28;20208;-84
2023/05/25 10:53:01;;;;;;;12.02;3.42;;;16.80;99.90;;;;;;5086761;28;20204;-83
2023/05/25 10:55:31;;;;;;;9.25;3.20;;;17.00;99.90;;;;;;5094486;28;20499;-81
2023/05/25 10:58:09;;;;;;;10.25;3.40;;;17.10;99.80;;;;;;5088056;28;20209;-83
2023/05/25 11:00:35;;;;;;;8.50;2.38;;;17.20;99.90;;;;;;5074676;28;20240;-81
2023/05/25 11:03:02;;;;;;;7.78;2.92;;;17.30;99.90;;;;;;5073999;28;20776;-86
2023/05/25 11:05:35;;;;;;;13.90;3.70;;;17.30;45.90;;;;;;5083408;28;20295;-83
2023/05/25 11:08:04;;;;;;;8.63;3.17;;;17.30;99.90;;;;;;5094031;28;20197;-81
2023/05/25 11:10:51;;;;;;;11.30;3.42;;;17.30;99.90;;;;;;5094521;28;20207;-82
2023/05/25 11:13:43;;;;;;;12.95;3.47;;;17.30;99.90;;;;;;5092633;28;20201;-89
2023/05/25 11:16:23;;;;;;;9.43;2.70;;;17.30;99.90;;;;;;5072878;28;20197;-82
2023/05/25 11:18:56;;;;;;;7.13;2.45;;;17.20;99.90;;;;;;5080097;28;20188;-88
2023/05/25 11:21:39;;;;;;;5.65;2.20;;;17.40;99.90;;;;;;5075308;28;20193;-83
2023/05/25 11:24:14;;;;;;;5.60;2.35;;;17.50;99.90;;;;;;5090303;28;20251;-81
2023/05/25 11:26:54;;;;;;;7.50;2.20;;;17.70;99.90;;;;;;5095349;28;20194;-87
2023/05/25 11:29:24;;;;;;;12.32;3.45;;;17.80;99.90;;;;;;5088448;28;20213;-85
2023/05/25 11:31:53;;;;;;;6.50;2.28;;;18.00;99.90;;;;;;5074175;28;20205;-85
2023/05/25 11:34:23;;;;;;;7.03;3.20;;;18.20;99.90;;;;;;5074848;28;20193;-82
2023/05/25 11:36:54;;;;;;;8.80;2.88;;;18.30;99.90;;;;;;5074088;28;20563;-86
2023/05/25 11:39:22;;;;;;;10.23;3.17;;;18.60;99.90;;;;;;5074757;28;20205;-84
2023/05/25 11:41:51;;;;;;;8.55;3.20;;;18.90;99.90;;;;;;5074275;28;20205;-86
2023/05/25 11:44:27;;;;;;;9.82;3.28;;;18.70;99.90;;;;;;5082280;28;20280;-82
2023/05/25 11:46:56;;;;;;;10.07;3.28;;;18.40;99.90;;;;;;5094453;28;20224;-84
2023/05/25 11:49:24;;;;;;;12.50;3.08;;;18.10;99.90;;;;;;5093793;28;20196;-82
2023/05/25 11:51:51;;;;;;;14.13;3.72;;;18.10;99.90;;;;;;5079981;28;20251;-84
2023/05/25 11:54:23;;;;;;;11.88;3.65;;;18.10;99.90;;;;;;5073310;28;20197;-81
2023/05/25 11:56:50;;;;;;;9.73;3.15;;;18.30;99.90;;;;;;5073436;28;20197;-82
2023/05/25 11:59:17;;;;;;;11.10;3.45;;;18.30;99.90;;;;;;5073540;28;20549;-87
2023/05/25 12:01:45;;;;;;;10.55;3.50;;;18.10;99.90;;;;;;5071608;28;20296;-84
2023/05/25 12:04:12;;;;;;;11.70;3.45;;;18.00;99.90;;;;;;5072988;28;20222;-83
2023/05/25 12:06:39;;;;;;;11.15;3.67;;;18.10;99.90;;;;;;5088543;28;20328;-81
2023/05/25 12:09:12;;;;;;;14.38;3.50;;;18.10;99.90;;;;;;5093872;28;20193;-82
2023/05/25 12:11:44;;;;;;;13.82;3.70;;;18.10;99.90;;;;;;5093593;28;20300;-82
2023/05/25 12:14:11;;;;;;;12.57;3.97;;;18.10;99.90;;;;;;5093717;28;20269;-87
2023/05/25 12:16:39;;;;;;;16.80;4.28;;;18.10;99.90;;;;;;5093429;28;20204;-87
2023/05/25 12:19:07;;;;;;;19.02;4.22;;;18.00;99.90;;;;;;5093292;28;20533;-86
2023/05/25 12:21:35;;;;;;;11.20;3.10;;;18.20;99.90;;;;;;5079857;28;20287;-82
2023/05/25 12:24:02;;;;;;;12.75;3.75;;;18.60;99.90;;;;;;5072788;28;20221;-81
2023/05/25 12:26:29;;;;;;;12.75;3.72;;;18.60;99.90;;;;;;5072170;28;20220;-81
2023/05/25 12:29:02;;;;;;;15.38;3.65;;;18.60;99.90;;;;;;5089535;28;20204;-82
2023/05/25 12:31:30;;;;;;;16.58;4.63;;;18.70;99.90;;;;;;5092807;28;20593;-87
2023/05/25 12:34:08;;;;;;;12.70;4.03;;;18.70;99.90;;;;;;5092599;28;20205;-89
2023/05/25 12:36:46;;;;;;;15.15;3.75;;;18.60;99.90;;;;;;5092524;28;20727;-82
2023/05/25 12:39:15;;;;;;;14.77;4.35;;;18.40;99.90;;;;;;5093567;28;20257;-82
2023/05/25 12:41:43;;;;;;;14.35;4.75;;;18.70;99.90;;;;;;5078623;28;20205;-85
2023/05/25 12:44:30;;;;;;;17.65;5.45;;;18.70;99.90;;;;;;5079710;28;20310;-83
2023/05/25 12:47:08;;;;;;;18.33;4.53;;;18.60;99.90;;;;;;5092954;28;20315;-86
2023/05/25 12:49:35;;;;;;;14.13;4.15;;;18.40;99.90;;;;;;5093292;28;20559;-82